sensor_id;sensor_type;location;lat;lon;timestamp;P1;durP1;ratioP1;P2;durP2;ratioP2
71838;SDS011;59687;37.520;15.068;2023-01-29T00:00:25;8.82;;;4.78;;
71838;SDS011;59687;37.520;15.068;2023-01-29T00:02:52;7.90;;;4.45;;
71838;SDS011;59687;37.520;15.068;2023-01-29T00:05:19;8.68;;;5.10;;
71838;SDS011;59687;37.520;15.068;2023-01-29T00:07:55;9.48;;;5.28;;
71838;SDS011;59687;37.520;15.068;2023-01-29T00:10:25;11.00;;;6.20;;
71838;SDS011;59687;37.520;15.068;2023-01-29T00:12:52;12.00;;;7.40;;
71838;SDS011;59687;37.520;15.068;2023-01-29T00:15:19;13.20;;;7.00;;
71838;SDS011;59687;37.520;15.068;2023-01-29T00:17:46;10.93;;;6.75;;
71838;SDS011;59687;37.520;15.068;2023-01-29T00:20:13;10.88;;;6.35;;
71838;SDS011;59687;37.520;15.068;2023-01-29T00:22:42;10.87;;;6.13;;
71838;SDS011;59687;37.520;15.068;2023-01-29T00:25:09;10.25;;;5.90;;
71838;SDS011;59687;37.520;15.068;2023-01-29T00:27:37;9.27;;;5.78;;
71838;SDS011;59687;37.520;15.068;2023-01-29T00:30:04;10.52;;;5.43;;
71838;SDS011;59687;37.520;15.068;2023-01-29T00:32:39;8.35;;;5.10;;
71838;SDS011;59687;37.520;15.068;2023-01-29T00:35:07;10.50;;;5.50;;
71838;SDS011;59687;37.520;15.068;2023-01-29T00:37:36;7.63;;;4.25;;
71838;SDS011;59687;37.520;15.068;2023-01-29T00:40:03;7.53;;;4.30;;
71838;SDS011;59687;37.520;15.068;2023-01-29T00:42:31;7.97;;;4.10;;
71838;SDS011;59687;37.520;15.068;2023-01-29T00:45:16;7.80;;;3.92;;
71838;SDS011;59687;37.520;15.068;2023-01-29T00:47:46;7.83;;;3.80;;
71838;SDS011;59687;37.520;15.068;2023-01-29T00:50:13;6.80;;;3.40;;
71838;SDS011;59687;37.520;15.068;2023-01-29T00:52:41;6.28;;;3.20;;
71838;SDS011;59687;37.520;15.068;2023-01-29T00:55:08;6.60;;;3.60;;
71838;SDS011;59687;37.520;15.068;2023-01-29T00:57:36;7.95;;;3.63;;
71838;SDS011;59687;37.520;15.068;2023-01-29T01:00:05;6.40;;;3.43;;
71838;SDS011;59687;37.520;15.068;2023-01-29T01:02:36;5.88;;;3.17;;
71838;SDS011;59687;37.520;15.068;2023-01-29T01:05:24;6.63;;;3.30;;
71838;SDS011;59687;37.520;15.068;2023-01-29T01:07:54;7.47;;;3.80;;
71838;SDS011;59687;37.520;15.068;2023-01-29T01:10:31;6.63;;;3.00;;
71838;SDS011;59687;37.520;15.068;2023-01-29T01:13:02;6.10;;;3.50;;
71838;SDS011;59687;37.520;15.068;2023-01-29T01:15:33;6.55;;;3.33;;
71838;SDS011;59687;37.520;15.068;2023-01-29T01:18:05;7.20;;;3.13;;
71838;SDS011;59687;37.520;15.068;2023-01-29T01:20:34;5.45;;;2.88;;
71838;SDS011;59687;37.520;15.068;2023-01-29T01:23:02;6.35;;;3.25;;
71838;SDS011;59687;37.520;15.068;2023-01-29T01:25:30;6.27;;;3.10;;
71838;SDS011;59687;37.520;15.068;2023-01-29T01:27:59;5.97;;;2.95;;
71838;SDS011;59687;37.520;15.068;2023-01-29T01:30:29;6.57;;;3.47;;
71838;SDS011;59687;37.520;15.068;2023-01-29T01:33:04;6.03;;;2.95;;
71838;SDS011;59687;37.520;15.068;2023-01-29T01:35:34;6.28;;;3.20;;
71838;SDS011;59687;37.520;15.068;2023-01-29T01:38:04;6.53;;;3.00;;
71838;SDS011;59687;37.520;15.068;2023-01-29T01:40:31;5.78;;;3.08;;
71838;SDS011;59687;37.520;15.068;2023-01-29T01:42:59;5.63;;;3.10;;
71838;SDS011;59687;37.520;15.068;2023-01-29T01:45:28;6.97;;;3.50;;
71838;SDS011;59687;37.520;15.068;2023-01-29T01:50:35;6.73;;;3.10;;
71838;SDS011;59687;37.520;15.068;2023-01-29T01:53:10;6.88;;;3.22;;
71838;SDS011;59687;37.520;15.068;2023-01-29T01:56:07;7.05;;;3.55;;
71838;SDS011;59687;37.520;15.068;2023-01-29T01:58:45;6.03;;;3.20;;
71838;SDS011;59687;37.520;15.068;2023-01-29T02:01:19;6.03;;;3.05;;
71838;SDS011;59687;37.520;15.068;2023-01-29T02:04:01;5.83;;;2.97;;
71838;SDS011;59687;37.520;15.068;2023-01-29T02:06:53;7.00;;;3.40;;
71838;SDS011;59687;37.520;15.068;2023-01-29T02:09:48;6.00;;;2.92;;
71838;SDS011;59687;37.520;15.068;2023-01-29T02:12:22;6.07;;;3.13;;
71838;SDS011;59687;37.520;15.068;2023-01-29T02:14:50;6.50;;;3.15;;
71838;SDS011;59687;37.520;15.068;2023-01-29T02:17:21;7.50;;;3.70;;
71838;SDS011;59687;37.520;15.068;2023-01-29T02:41:24;7.00;;;3.60;;
71838;SDS011;59687;37.520;15.068;2023-01-29T02:47:32;6.35;;;3.00;;
71838;SDS011;59687;37.520;15.068;2023-01-29T02:55:31;7.05;;;3.13;;
71838;SDS011;59687;37.520;15.068;2023-01-29T02:58:28;6.57;;;2.97;;
71838;SDS011;59687;37.520;15.068;2023-01-29T03:01:03;6.88;;;3.17;;
71838;SDS011;59687;37.520;15.068;2023-01-29T03:03:43;6.78;;;3.25;;
71838;SDS011;59687;37.520;15.068;2023-01-29T03:06:22;6.90;;;3.17;;
71838;SDS011;59687;37.520;15.068;2023-01-29T03:12:45;6.73;;;3.13;;
71838;SDS011;59687;37.520;15.068;2023-01-29T03:15:40;6.82;;;3.50;;
71838;SDS011;59687;37.520;15.068;2023-01-29T03:18:39;7.70;;;3.58;;
71838;SDS011;59687;37.520;15.068;2023-01-29T03:21:21;8.30;;;3.70;;
71838;SDS011;59687;37.520;15.068;2023-01-29T03:24:57;8.93;;;3.30;;
71838;SDS011;59687;37.520;15.068;2023-01-29T03:27:49;7.10;;;3.60;;
71838;SDS011;59687;37.520;15.068;2023-01-29T03:30:46;7.28;;;3.28;;
71838;SDS011;59687;37.520;15.068;2023-01-29T03:33:46;6.05;;;2.85;;
71838;SDS011;59687;37.520;15.068;2023-01-29T03:39:17;6.80;;;3.00;;
71838;SDS011;59687;37.520;15.068;2023-01-29T03:41:55;8.10;;;3.67;;
71838;SDS011;59687;37.520;15.068;2023-01-29T03:47:48;8.07;;;3.97;;
71838;SDS011;59687;37.520;15.068;2023-01-29T03:58:46;6.15;;;2.90;;
71838;SDS011;59687;37.520;15.068;2023-01-29T04:01:57;6.45;;;2.88;;
71838;SDS011;59687;37.520;15.068;2023-01-29T04:04:33;6.18;;;3.00;;
71838;SDS011;59687;37.520;15.068;2023-01-29T04:07:11;7.18;;;3.05;;
71838;SDS011;59687;37.520;15.068;2023-01-29T04:10:07;7.67;;;3.10;;
71838;SDS011;59687;37.520;15.068;2023-01-29T04:12:51;6.78;;;3.13;;
71838;SDS011;59687;37.520;15.068;2023-01-29T04:15:44;6.28;;;2.90;;
71838;SDS011;59687;37.520;15.068;2023-01-29T04:18:20;6.35;;;3.05;;
71838;SDS011;59687;37.520;15.068;2023-01-29T04:21:05;6.00;;;2.80;;
71838;SDS011;59687;37.520;15.068;2023-01-29T04:23:33;7.23;;;3.37;;
71838;SDS011;59687;37.520;15.068;2023-01-29T04:29:09;6.90;;;3.28;;
71838;SDS011;59687;37.520;15.068;2023-01-29T04:31:51;6.65;;;3.20;;
71838;SDS011;59687;37.520;15.068;2023-01-29T04:40:40;7.15;;;3.63;;
71838;SDS011;59687;37.520;15.068;2023-01-29T04:49:17;8.38;;;3.75;;
71838;SDS011;59687;37.520;15.068;2023-01-29T04:57:35;6.20;;;3.10;;
71838;SDS011;59687;37.520;15.068;2023-01-29T05:00:23;6.65;;;3.22;;
71838;SDS011;59687;37.520;15.068;2023-01-29T05:02:55;8.07;;;3.38;;
71838;SDS011;59687;37.520;15.068;2023-01-29T05:05:23;7.60;;;3.70;;
71838;SDS011;59687;37.520;15.068;2023-01-29T05:07:52;7.40;;;3.30;;
71838;SDS011;59687;37.520;15.068;2023-01-29T05:10:20;7.28;;;3.28;;
71838;SDS011;59687;37.520;15.068;2023-01-29T05:12:51;6.75;;;3.60;;
71838;SDS011;59687;37.520;15.068;2023-01-29T05:15:37;7.25;;;3.58;;
71838;SDS011;59687;37.520;15.068;2023-01-29T05:18:20;7.07;;;3.40;;
71838;SDS011;59687;37.520;15.068;2023-01-29T05:20:49;7.05;;;3.30;;
71838;SDS011;59687;37.520;15.068;2023-01-29T05:23:22;7.50;;;3.78;;
71838;SDS011;59687;37.520;15.068;2023-01-29T05:25:51;6.78;;;3.60;;
71838;SDS011;59687;37.520;15.068;2023-01-29T05:28:25;7.88;;;3.90;;
71838;SDS011;59687;37.520;15.068;2023-01-29T05:30:53;7.07;;;3.90;;
71838;SDS011;59687;37.520;15.068;2023-01-29T05:33:25;7.90;;;3.38;;
71838;SDS011;59687;37.520;15.068;2023-01-29T05:35:54;6.43;;;3.58;;
71838;SDS011;59687;37.520;15.068;2023-01-29T05:38:24;7.63;;;3.97;;
71838;SDS011;59687;37.520;15.068;2023-01-29T05:40:51;7.88;;;3.95;;
71838;SDS011;59687;37.520;15.068;2023-01-29T05:43:21;8.83;;;4.20;;
71838;SDS011;59687;37.520;15.068;2023-01-29T05:45:56;7.93;;;4.38;;
71838;SDS011;59687;37.520;15.068;2023-01-29T05:48:27;7.10;;;4.05;;
71838;SDS011;59687;37.520;15.068;2023-01-29T05:51:01;9.48;;;5.72;;
71838;SDS011;59687;37.520;15.068;2023-01-29T05:53:29;8.93;;;5.57;;
71838;SDS011;59687;37.520;15.068;2023-01-29T05:58:59;8.57;;;4.70;;
71838;SDS011;59687;37.520;15.068;2023-01-29T06:01:28;9.10;;;3.90;;
71838;SDS011;59687;37.520;15.068;2023-01-29T06:03:55;6.63;;;3.60;;
71838;SDS011;59687;37.520;15.068;2023-01-29T06:06:22;7.55;;;3.85;;
71838;SDS011;59687;37.520;15.068;2023-01-29T06:08:50;7.13;;;3.93;;
71838;SDS011;59687;37.520;15.068;2023-01-29T06:11:21;7.78;;;4.20;;
71838;SDS011;59687;37.520;15.068;2023-01-29T06:13:48;8.82;;;4.97;;
71838;SDS011;59687;37.520;15.068;2023-01-29T06:16:15;9.43;;;5.20;;
71838;SDS011;59687;37.520;15.068;2023-01-29T06:18:43;8.73;;;5.28;;
71838;SDS011;59687;37.520;15.068;2023-01-29T06:21:12;8.93;;;5.23;;
71838;SDS011;59687;37.520;15.068;2023-01-29T06:23:40;8.20;;;4.35;;
71838;SDS011;59687;37.520;15.068;2023-01-29T06:26:12;8.38;;;4.20;;
71838;SDS011;59687;37.520;15.068;2023-01-29T06:28:40;8.90;;;4.63;;
71838;SDS011;59687;37.520;15.068;2023-01-29T06:31:08;8.73;;;4.40;;
71838;SDS011;59687;37.520;15.068;2023-01-29T06:33:59;8.77;;;4.30;;
71838;SDS011;59687;37.520;15.068;2023-01-29T06:36:26;9.43;;;5.20;;
71838;SDS011;59687;37.520;15.068;2023-01-29T06:38:54;10.75;;;5.78;;
71838;SDS011;59687;37.520;15.068;2023-01-29T06:41:21;9.70;;;5.50;;
71838;SDS011;59687;37.520;15.068;2023-01-29T06:43:51;9.73;;;5.75;;
71838;SDS011;59687;37.520;15.068;2023-01-29T06:46:36;8.83;;;4.70;;
71838;SDS011;59687;37.520;15.068;2023-01-29T06:49:07;9.73;;;4.82;;
71838;SDS011;59687;37.520;15.068;2023-01-29T06:51:34;8.73;;;4.95;;
71838;SDS011;59687;37.520;15.068;2023-01-29T06:54:01;12.95;;;5.80;;
71838;SDS011;59687;37.520;15.068;2023-01-29T06:56:29;9.43;;;5.00;;
71838;SDS011;59687;37.520;15.068;2023-01-29T06:58:58;9.57;;;5.70;;
71838;SDS011;59687;37.520;15.068;2023-01-29T07:01:25;8.90;;;5.07;;
71838;SDS011;59687;37.520;15.068;2023-01-29T07:04:01;8.43;;;4.60;;
71838;SDS011;59687;37.520;15.068;2023-01-29T07:06:31;9.98;;;4.80;;
71838;SDS011;59687;37.520;15.068;2023-01-29T07:08:58;11.07;;;4.22;;
71838;SDS011;59687;37.520;15.068;2023-01-29T07:11:25;9.13;;;4.23;;
71838;SDS011;59687;37.520;15.068;2023-01-29T07:13:52;6.80;;;3.83;;
71838;SDS011;59687;37.520;15.068;2023-01-29T07:16:22;6.97;;;3.80;;
71838;SDS011;59687;37.520;15.068;2023-01-29T07:18:50;8.27;;;4.40;;
71838;SDS011;59687;37.520;15.068;2023-01-29T07:21:20;8.60;;;4.53;;
71838;SDS011;59687;37.520;15.068;2023-01-29T07:23:47;9.27;;;4.77;;
71838;SDS011;59687;37.520;15.068;2023-01-29T07:26:14;9.80;;;4.50;;
71838;SDS011;59687;37.520;15.068;2023-01-29T07:28:41;7.75;;;4.40;;
71838;SDS011;59687;37.520;15.068;2023-01-29T07:31:10;8.77;;;4.80;;
71838;SDS011;59687;37.520;15.068;2023-01-29T07:33:43;8.48;;;4.85;;
71838;SDS011;59687;37.520;15.068;2023-01-29T07:36:11;9.17;;;5.30;;
71838;SDS011;59687;37.520;15.068;2023-01-29T07:38:39;9.77;;;5.75;;
71838;SDS011;59687;37.520;15.068;2023-01-29T07:41:07;10.00;;;5.25;;
71838;SDS011;59687;37.520;15.068;2023-01-29T07:43:36;10.35;;;5.43;;
71838;SDS011;59687;37.520;15.068;2023-01-29T07:46:03;9.60;;;5.72;;
71838;SDS011;59687;37.520;15.068;2023-01-29T07:48:31;10.80;;;6.30;;
71838;SDS011;59687;37.520;15.068;2023-01-29T07:50:58;10.02;;;5.35;;
71838;SDS011;59687;37.520;15.068;2023-01-29T07:53:26;10.15;;;6.20;;
71838;SDS011;59687;37.520;15.068;2023-01-29T07:55:53;10.32;;;5.78;;
71838;SDS011;59687;37.520;15.068;2023-01-29T07:58:20;9.02;;;5.40;;
71838;SDS011;59687;37.520;15.068;2023-01-29T08:00:48;8.03;;;4.83;;
71838;SDS011;59687;37.520;15.068;2023-01-29T08:03:17;9.82;;;4.68;;
71838;SDS011;59687;37.520;15.068;2023-01-29T08:05:45;9.55;;;5.28;;
71838;SDS011;59687;37.520;15.068;2023-01-29T08:08:13;9.10;;;5.30;;
71838;SDS011;59687;37.520;15.068;2023-01-29T08:10:40;8.63;;;5.10;;
71838;SDS011;59687;37.520;15.068;2023-01-29T08:13:08;9.47;;;5.37;;
71838;SDS011;59687;37.520;15.068;2023-01-29T08:15:35;10.30;;;5.13;;
71838;SDS011;59687;37.520;15.068;2023-01-29T08:18:04;10.15;;;5.47;;
71838;SDS011;59687;37.520;15.068;2023-01-29T08:20:36;14.98;;;7.47;;
71838;SDS011;59687;37.520;15.068;2023-01-29T08:23:05;15.50;;;7.93;;
71838;SDS011;59687;37.520;15.068;2023-01-29T08:25:37;15.07;;;7.87;;
71838;SDS011;59687;37.520;15.068;2023-01-29T08:28:05;18.02;;;9.20;;
71838;SDS011;59687;37.520;15.068;2023-01-29T08:30:33;14.73;;;8.15;;
71838;SDS011;59687;37.520;15.068;2023-01-29T08:33:01;14.68;;;6.45;;
71838;SDS011;59687;37.520;15.068;2023-01-29T08:35:29;10.52;;;5.93;;
71838;SDS011;59687;37.520;15.068;2023-01-29T08:37:56;10.10;;;5.60;;
71838;SDS011;59687;37.520;15.068;2023-01-29T08:40:27;12.57;;;5.82;;
71838;SDS011;59687;37.520;15.068;2023-01-29T08:43:00;9.98;;;4.88;;
71838;SDS011;59687;37.520;15.068;2023-01-29T08:45:29;10.68;;;6.78;;
71838;SDS011;59687;37.520;15.068;2023-01-29T08:47:57;11.68;;;6.60;;
71838;SDS011;59687;37.520;15.068;2023-01-29T08:50:24;10.80;;;5.73;;
71838;SDS011;59687;37.520;15.068;2023-01-29T08:52:55;10.60;;;6.72;;
71838;SDS011;59687;37.520;15.068;2023-01-29T08:55:24;9.80;;;6.60;;
71838;SDS011;59687;37.520;15.068;2023-01-29T08:57:51;9.93;;;6.00;;
71838;SDS011;59687;37.520;15.068;2023-01-29T09:00:19;7.95;;;4.30;;
71838;SDS011;59687;37.520;15.068;2023-01-29T09:02:46;7.80;;;4.37;;
71838;SDS011;59687;37.520;15.068;2023-01-29T09:05:13;8.20;;;3.97;;
71838;SDS011;59687;37.520;15.068;2023-01-29T09:07:40;6.90;;;4.20;;
71838;SDS011;59687;37.520;15.068;2023-01-29T09:10:07;7.97;;;4.80;;
71838;SDS011;59687;37.520;15.068;2023-01-29T09:12:35;9.15;;;5.28;;
71838;SDS011;59687;37.520;15.068;2023-01-29T09:15:02;9.63;;;5.83;;
71838;SDS011;59687;37.520;15.068;2023-01-29T09:17:29;10.82;;;6.07;;
71838;SDS011;59687;37.520;15.068;2023-01-29T09:19:56;12.88;;;6.72;;
71838;SDS011;59687;37.520;15.068;2023-01-29T09:22:24;11.75;;;6.75;;
71838;SDS011;59687;37.520;15.068;2023-01-29T09:24:52;12.45;;;6.35;;
71838;SDS011;59687;37.520;15.068;2023-01-29T09:27:19;9.17;;;5.00;;
71838;SDS011;59687;37.520;15.068;2023-01-29T09:29:47;8.50;;;5.05;;
71838;SDS011;59687;37.520;15.068;2023-01-29T09:32:15;10.32;;;5.68;;
71838;SDS011;59687;37.520;15.068;2023-01-29T09:35:02;13.88;;;7.70;;
71838;SDS011;59687;37.520;15.068;2023-01-29T09:37:31;11.63;;;6.40;;
71838;SDS011;59687;37.520;15.068;2023-01-29T09:39:58;9.13;;;5.80;;
71838;SDS011;59687;37.520;15.068;2023-01-29T09:42:26;11.73;;;6.25;;
71838;SDS011;59687;37.520;15.068;2023-01-29T09:45:11;7.97;;;4.07;;
71838;SDS011;59687;37.520;15.068;2023-01-29T09:47:42;9.98;;;5.40;;
71838;SDS011;59687;37.520;15.068;2023-01-29T09:50:20;8.90;;;5.80;;
71838;SDS011;59687;37.520;15.068;2023-01-29T09:52:54;8.40;;;5.13;;
71838;SDS011;59687;37.520;15.068;2023-01-29T09:58:05;5.95;;;3.38;;
71838;SDS011;59687;37.520;15.068;2023-01-29T10:03:33;9.45;;;5.00;;
71838;SDS011;59687;37.520;15.068;2023-01-29T10:06:40;7.33;;;4.60;;
71838;SDS011;59687;37.520;15.068;2023-01-29T10:17:36;9.35;;;6.43;;
71838;SDS011;59687;37.520;15.068;2023-01-29T10:20:55;7.63;;;4.17;;
71838;SDS011;59687;37.520;15.068;2023-01-29T10:26:02;7.70;;;4.38;;
71838;SDS011;59687;37.520;15.068;2023-01-29T10:31:16;7.22;;;4.47;;
71838;SDS011;59687;37.520;15.068;2023-01-29T10:34:11;6.13;;;4.40;;
71838;SDS011;59687;37.520;15.068;2023-01-29T10:36:43;7.10;;;4.40;;
71838;SDS011;59687;37.520;15.068;2023-01-29T10:39:21;7.85;;;5.22;;
71838;SDS011;59687;37.520;15.068;2023-01-29T10:54:31;7.13;;;4.18;;
71838;SDS011;59687;37.520;15.068;2023-01-29T11:00:09;5.03;;;3.00;;
71838;SDS011;59687;37.520;15.068;2023-01-29T11:02:46;5.20;;;3.30;;
71838;SDS011;59687;37.520;15.068;2023-01-29T11:05:20;6.63;;;4.10;;
71838;SDS011;59687;37.520;15.068;2023-01-29T11:08:06;6.93;;;3.80;;
71838;SDS011;59687;37.520;15.068;2023-01-29T11:10:39;7.35;;;4.00;;
71838;SDS011;59687;37.520;15.068;2023-01-29T11:13:14;6.70;;;4.22;;
71838;SDS011;59687;37.520;15.068;2023-01-29T11:15:44;5.87;;;3.60;;
71838;SDS011;59687;37.520;15.068;2023-01-29T11:18:12;6.80;;;3.20;;
71838;SDS011;59687;37.520;15.068;2023-01-29T11:20:41;7.43;;;3.92;;
71838;SDS011;59687;37.520;15.068;2023-01-29T11:25:56;5.18;;;2.85;;
71838;SDS011;59687;37.520;15.068;2023-01-29T11:28:35;4.57;;;2.00;;
71838;SDS011;59687;37.520;15.068;2023-01-29T11:31:26;4.82;;;2.40;;
71838;SDS011;59687;37.520;15.068;2023-01-29T11:34:18;7.53;;;2.60;;
71838;SDS011;59687;37.520;15.068;2023-01-29T11:36:55;4.97;;;2.53;;
71838;SDS011;59687;37.520;15.068;2023-01-29T11:39:30;6.25;;;2.90;;
71838;SDS011;59687;37.520;15.068;2023-01-29T11:42:00;4.27;;;2.40;;
71838;SDS011;59687;37.520;15.068;2023-01-29T11:44:31;5.88;;;2.60;;
71838;SDS011;59687;37.520;15.068;2023-01-29T11:49:43;4.10;;;1.70;;
71838;SDS011;59687;37.520;15.068;2023-01-29T11:52:14;3.83;;;1.58;;
71838;SDS011;59687;37.520;15.068;2023-01-29T11:57:37;4.68;;;1.58;;
71838;SDS011;59687;37.520;15.068;2023-01-29T12:00:24;4.88;;;1.60;;
71838;SDS011;59687;37.520;15.068;2023-01-29T12:03:00;4.85;;;2.15;;
71838;SDS011;59687;37.520;15.068;2023-01-29T12:05:36;4.07;;;1.70;;
71838;SDS011;59687;37.520;15.068;2023-01-29T12:08:13;5.60;;;1.30;;
71838;SDS011;59687;37.520;15.068;2023-01-29T12:10:42;3.30;;;1.23;;
71838;SDS011;59687;37.520;15.068;2023-01-29T12:15:47;4.43;;;1.83;;
71838;SDS011;59687;37.520;15.068;2023-01-29T12:26:56;3.58;;;1.48;;
71838;SDS011;59687;37.520;15.068;2023-01-29T12:30:15;5.25;;;1.70;;
71838;SDS011;59687;37.520;15.068;2023-01-29T12:32:47;4.20;;;1.60;;
71838;SDS011;59687;37.520;15.068;2023-01-29T12:35:18;3.50;;;1.30;;
71838;SDS011;59687;37.520;15.068;2023-01-29T12:37:57;3.90;;;1.80;;
71838;SDS011;59687;37.520;15.068;2023-01-29T12:40:32;4.55;;;1.55;;
71838;SDS011;59687;37.520;15.068;2023-01-29T12:43:07;5.10;;;1.70;;
71838;SDS011;59687;37.520;15.068;2023-01-29T12:45:41;6.22;;;1.60;;
71838;SDS011;59687;37.520;15.068;2023-01-29T12:48:13;4.33;;;2.13;;
71838;SDS011;59687;37.520;15.068;2023-01-29T12:50:54;5.43;;;2.30;;
71838;SDS011;59687;37.520;15.068;2023-01-29T12:53:30;4.05;;;1.65;;
71838;SDS011;59687;37.520;15.068;2023-01-29T12:56:04;3.90;;;1.45;;
71838;SDS011;59687;37.520;15.068;2023-01-29T12:58:38;4.43;;;2.08;;
71838;SDS011;59687;37.520;15.068;2023-01-29T13:01:11;3.90;;;1.40;;
71838;SDS011;59687;37.520;15.068;2023-01-29T13:06:40;4.35;;;1.80;;
71838;SDS011;59687;37.520;15.068;2023-01-29T13:09:12;3.97;;;1.52;;
71838;SDS011;59687;37.520;15.068;2023-01-29T13:11:48;4.40;;;1.55;;
71838;SDS011;59687;37.520;15.068;2023-01-29T13:14:21;4.57;;;1.60;;
71838;SDS011;59687;37.520;15.068;2023-01-29T13:16:51;3.78;;;1.70;;
71838;SDS011;59687;37.520;15.068;2023-01-29T13:19:24;4.45;;;1.65;;
71838;SDS011;59687;37.520;15.068;2023-01-29T13:22:04;4.20;;;1.67;;
71838;SDS011;59687;37.520;15.068;2023-01-29T13:24:39;4.82;;;1.58;;
71838;SDS011;59687;37.520;15.068;2023-01-29T13:27:26;3.70;;;1.27;;
71838;SDS011;59687;37.520;15.068;2023-01-29T13:29:55;4.13;;;1.65;;
71838;SDS011;59687;37.520;15.068;2023-01-29T13:32:26;4.38;;;1.70;;
71838;SDS011;59687;37.520;15.068;2023-01-29T13:34:58;4.10;;;1.92;;
71838;SDS011;59687;37.520;15.068;2023-01-29T13:37:30;4.13;;;1.60;;
71838;SDS011;59687;37.520;15.068;2023-01-29T13:40:00;4.30;;;2.03;;
71838;SDS011;59687;37.520;15.068;2023-01-29T13:42:47;4.07;;;1.55;;
71838;SDS011;59687;37.520;15.068;2023-01-29T13:45:27;5.18;;;1.80;;
71838;SDS011;59687;37.520;15.068;2023-01-29T13:51:10;5.40;;;1.80;;
71838;SDS011;59687;37.520;15.068;2023-01-29T13:53:42;4.83;;;1.90;;
71838;SDS011;59687;37.520;15.068;2023-01-29T13:59:05;5.07;;;2.30;;
71838;SDS011;59687;37.520;15.068;2023-01-29T14:06:48;4.43;;;1.67;;
71838;SDS011;59687;37.520;15.068;2023-01-29T14:17:22;6.60;;;2.05;;
71838;SDS011;59687;37.520;15.068;2023-01-29T14:20:02;5.77;;;2.10;;
71838;SDS011;59687;37.520;15.068;2023-01-29T14:22:52;4.63;;;2.00;;
71838;SDS011;59687;37.520;15.068;2023-01-29T14:25:20;4.80;;;2.35;;
71838;SDS011;59687;37.520;15.068;2023-01-29T14:27:54;5.60;;;2.00;;
71838;SDS011;59687;37.520;15.068;2023-01-29T14:30:23;4.95;;;2.03;;
71838;SDS011;59687;37.520;15.068;2023-01-29T14:32:53;5.13;;;2.13;;
71838;SDS011;59687;37.520;15.068;2023-01-29T14:35:21;4.68;;;2.33;;
71838;SDS011;59687;37.520;15.068;2023-01-29T14:37:53;4.80;;;2.45;;
71838;SDS011;59687;37.520;15.068;2023-01-29T14:40:25;4.28;;;1.95;;
71838;SDS011;59687;37.520;15.068;2023-01-29T14:43:05;4.40;;;2.20;;
71838;SDS011;59687;37.520;15.068;2023-01-29T14:45:38;5.37;;;2.13;;
71838;SDS011;59687;37.520;15.068;2023-01-29T14:51:09;4.15;;;1.70;;
71838;SDS011;59687;37.520;15.068;2023-01-29T14:53:55;5.35;;;1.90;;
71838;SDS011;59687;37.520;15.068;2023-01-29T14:56:39;4.53;;;2.00;;
71838;SDS011;59687;37.520;15.068;2023-01-29T14:59:18;4.13;;;1.90;;
71838;SDS011;59687;37.520;15.068;2023-01-29T15:01:53;5.10;;;2.08;;
71838;SDS011;59687;37.520;15.068;2023-01-29T15:04:55;5.05;;;2.00;;
71838;SDS011;59687;37.520;15.068;2023-01-29T15:12:48;4.97;;;2.13;;
71838;SDS011;59687;37.520;15.068;2023-01-29T15:15:53;8.27;;;2.70;;
71838;SDS011;59687;37.520;15.068;2023-01-29T15:18:30;5.30;;;2.05;;
71838;SDS011;59687;37.520;15.068;2023-01-29T15:21:03;5.60;;;2.00;;
71838;SDS011;59687;37.520;15.068;2023-01-29T15:23:37;4.60;;;2.00;;
71838;SDS011;59687;37.520;15.068;2023-01-29T15:26:09;4.23;;;2.00;;
71838;SDS011;59687;37.520;15.068;2023-01-29T15:28:37;4.70;;;2.17;;
71838;SDS011;59687;37.520;15.068;2023-01-29T15:31:06;5.53;;;2.58;;
71838;SDS011;59687;37.520;15.068;2023-01-29T15:33:40;5.00;;;2.50;;
71838;SDS011;59687;37.520;15.068;2023-01-29T15:36:15;6.82;;;3.00;;
71838;SDS011;59687;37.520;15.068;2023-01-29T15:38:46;5.83;;;2.77;;
71838;SDS011;59687;37.520;15.068;2023-01-29T15:41:17;4.85;;;2.08;;
71838;SDS011;59687;37.520;15.068;2023-01-29T15:43:47;6.32;;;2.40;;
71838;SDS011;59687;37.520;15.068;2023-01-29T15:48:47;5.65;;;2.63;;
71838;SDS011;59687;37.520;15.068;2023-01-29T15:51:16;4.67;;;2.27;;
71838;SDS011;59687;37.520;15.068;2023-01-29T15:53:47;5.72;;;2.25;;
71838;SDS011;59687;37.520;15.068;2023-01-29T15:56:20;4.68;;;2.25;;
71838;SDS011;59687;37.520;15.068;2023-01-29T15:58:52;5.60;;;2.42;;
71838;SDS011;59687;37.520;15.068;2023-01-29T16:01:20;5.35;;;2.63;;
71838;SDS011;59687;37.520;15.068;2023-01-29T16:03:51;5.40;;;2.40;;
71838;SDS011;59687;37.520;15.068;2023-01-29T16:06:18;6.07;;;2.30;;
71838;SDS011;59687;37.520;15.068;2023-01-29T16:08:50;5.65;;;2.28;;
71838;SDS011;59687;37.520;15.068;2023-01-29T16:11:20;5.60;;;2.20;;
71838;SDS011;59687;37.520;15.068;2023-01-29T16:13:47;5.85;;;3.35;;
71838;SDS011;59687;37.520;15.068;2023-01-29T16:16:21;5.47;;;2.67;;
71838;SDS011;59687;37.520;15.068;2023-01-29T16:18:50;4.78;;;2.33;;
71838;SDS011;59687;37.520;15.068;2023-01-29T16:21:38;6.45;;;2.75;;
71838;SDS011;59687;37.520;15.068;2023-01-29T16:26:36;5.93;;;2.25;;
71838;SDS011;59687;37.520;15.068;2023-01-29T16:29:09;5.50;;;2.20;;
71838;SDS011;59687;37.520;15.068;2023-01-29T16:31:38;5.40;;;2.97;;
71838;SDS011;59687;37.520;15.068;2023-01-29T16:34:08;6.90;;;2.85;;
71838;SDS011;59687;37.520;15.068;2023-01-29T16:36:46;4.85;;;2.78;;
71838;SDS011;59687;37.520;15.068;2023-01-29T16:39:19;6.55;;;3.50;;
71838;SDS011;59687;37.520;15.068;2023-01-29T16:42:32;5.37;;;3.00;;
71838;SDS011;59687;37.520;15.068;2023-01-29T16:47:35;6.57;;;3.13;;
71838;SDS011;59687;37.520;15.068;2023-01-29T16:53:18;5.38;;;2.90;;
71838;SDS011;59687;37.520;15.068;2023-01-29T16:55:48;5.87;;;3.00;;
71838;SDS011;59687;37.520;15.068;2023-01-29T16:58:18;6.18;;;3.40;;
71838;SDS011;59687;37.520;15.068;2023-01-29T17:00:49;6.57;;;3.20;;
71838;SDS011;59687;37.520;15.068;2023-01-29T17:03:19;6.60;;;3.45;;
71838;SDS011;59687;37.520;15.068;2023-01-29T17:05:51;7.10;;;3.88;;
71838;SDS011;59687;37.520;15.068;2023-01-29T17:08:31;9.10;;;4.80;;
71838;SDS011;59687;37.520;15.068;2023-01-29T17:10:59;8.77;;;4.55;;
71838;SDS011;59687;37.520;15.068;2023-01-29T17:13:37;8.25;;;4.93;;
71838;SDS011;59687;37.520;15.068;2023-01-29T17:16:27;6.50;;;3.58;;
71838;SDS011;59687;37.520;15.068;2023-01-29T17:18:59;5.97;;;3.10;;
71838;SDS011;59687;37.520;15.068;2023-01-29T17:21:27;5.70;;;2.80;;
71838;SDS011;59687;37.520;15.068;2023-01-29T17:23:56;6.80;;;3.30;;
71838;SDS011;59687;37.520;15.068;2023-01-29T17:26:22;5.68;;;2.78;;
71838;SDS011;59687;37.520;15.068;2023-01-29T17:28:51;5.40;;;2.40;;
71838;SDS011;59687;37.520;15.068;2023-01-29T17:31:19;5.45;;;2.40;;
71838;SDS011;59687;37.520;15.068;2023-01-29T17:33:47;5.60;;;2.50;;
71838;SDS011;59687;37.520;15.068;2023-01-29T17:36:15;5.43;;;2.70;;
71838;SDS011;59687;37.520;15.068;2023-01-29T17:38:44;4.97;;;2.80;;
71838;SDS011;59687;37.520;15.068;2023-01-29T17:43:53;4.85;;;2.80;;
71838;SDS011;59687;37.520;15.068;2023-01-29T17:46:20;6.10;;;2.80;;
71838;SDS011;59687;37.520;15.068;2023-01-29T17:48:48;5.93;;;3.13;;
71838;SDS011;59687;37.520;15.068;2023-01-29T17:51:16;5.80;;;3.13;;
71838;SDS011;59687;37.520;15.068;2023-01-29T17:53:43;7.05;;;3.95;;
71838;SDS011;59687;37.520;15.068;2023-01-29T17:56:13;7.60;;;3.72;;
71838;SDS011;59687;37.520;15.068;2023-01-29T17:58:46;7.77;;;4.17;;
71838;SDS011;59687;37.520;15.068;2023-01-29T18:01:13;7.78;;;4.50;;
71838;SDS011;59687;37.520;15.068;2023-01-29T18:03:40;8.60;;;4.88;;